sensor_id;sensor_type;location;lat;lon;timestamp;P1;durP1;ratioP1;P2;durP2;ratioP2
59766;SDS011;46248;58.364;25.582;2022-12-05T00:02:19;9.00;;;4.75;;
59766;SDS011;46248;58.364;25.582;2022-12-05T00:05:41;10.68;;;5.20;;
59766;SDS011;46248;58.364;25.582;2022-12-05T00:09:04;9.60;;;4.32;;
59766;SDS011;46248;58.364;25.582;2022-12-05T00:12:28;9.48;;;5.20;;
59766;SDS011;46248;58.364;25.582;2022-12-05T00:15:50;13.02;;;4.78;;
59766;SDS011;46248;58.364;25.582;2022-12-05T00:19:13;6.40;;;3.85;;
59766;SDS011;46248;58.364;25.582;2022-12-05T00:22:36;9.85;;;5.30;;
59766;SDS011;46248;58.364;25.582;2022-12-05T00:26:00;10.80;;;5.47;;
59766;SDS011;46248;58.364;25.582;2022-12-05T00:29:24;8.38;;;4.88;;
59766;SDS011;46248;58.364;25.582;2022-12-05T00:32:46;9.95;;;5.00;;
59766;SDS011;46248;58.364;25.582;2022-12-05T00:36:09;8.00;;;4.40;;
59766;SDS011;46248;58.364;25.582;2022-12-05T00:39:32;10.00;;;5.78;;
59766;SDS011;46248;58.364;25.582;2022-12-05T00:42:54;7.72;;;4.20;;
59766;SDS011;46248;58.364;25.582;2022-12-05T00:46:18;12.55;;;4.88;;
59766;SDS011;46248;58.364;25.582;2022-12-05T00:49:42;10.68;;;5.43;;
59766;SDS011;46248;58.364;25.582;2022-12-05T00:53:04;8.65;;;5.10;;
59766;SDS011;46248;58.364;25.582;2022-12-05T00:56:26;8.73;;;4.47;;
59766;SDS011;46248;58.364;25.582;2022-12-05T00:59:49;11.35;;;5.07;;
59766;SDS011;46248;58.364;25.582;2022-12-05T01:03:13;18.60;;;7.60;;
59766;SDS011;46248;58.364;25.582;2022-12-05T01:06:35;9.82;;;5.30;;
59766;SDS011;46248;58.364;25.582;2022-12-05T01:09:57;10.85;;;5.13;;
59766;SDS011;46248;58.364;25.582;2022-12-05T01:13:19;7.47;;;4.38;;
59766;SDS011;46248;58.364;25.582;2022-12-05T01:16:42;8.55;;;4.25;;
59766;SDS011;46248;58.364;25.582;2022-12-05T01:20:08;9.35;;;4.38;;
59766;SDS011;46248;58.364;25.582;2022-12-05T01:23:31;8.55;;;4.30;;
59766;SDS011;46248;58.364;25.582;2022-12-05T01:26:53;8.40;;;5.15;;
59766;SDS011;46248;58.364;25.582;2022-12-05T01:30:16;10.80;;;5.68;;
59766;SDS011;46248;58.364;25.582;2022-12-05T01:33:39;11.55;;;5.70;;
59766;SDS011;46248;58.364;25.582;2022-12-05T01:37:03;14.93;;;6.63;;
59766;SDS011;46248;58.364;25.582;2022-12-05T01:40:25;9.68;;;5.15;;
59766;SDS011;46248;58.364;25.582;2022-12-05T01:43:55;8.90;;;4.32;;
59766;SDS011;46248;58.364;25.582;2022-12-05T01:47:19;8.95;;;4.93;;
59766;SDS011;46248;58.364;25.582;2022-12-05T01:50:44;8.93;;;4.50;;
59766;SDS011;46248;58.364;25.582;2022-12-05T01:54:09;10.93;;;5.28;;
59766;SDS011;46248;58.364;25.582;2022-12-05T01:57:33;11.02;;;5.90;;
59766;SDS011;46248;58.364;25.582;2022-12-05T02:00:55;10.95;;;5.57;;
59766;SDS011;46248;58.364;25.582;2022-12-05T02:04:17;10.52;;;5.15;;
59766;SDS011;46248;58.364;25.582;2022-12-05T02:07:39;11.98;;;5.05;;
59766;SDS011;46248;58.364;25.582;2022-12-05T02:11:05;11.82;;;5.82;;
59766;SDS011;46248;58.364;25.582;2022-12-05T02:14:30;11.80;;;6.55;;
59766;SDS011;46248;58.364;25.582;2022-12-05T02:18:01;12.93;;;5.90;;
59766;SDS011;46248;58.364;25.582;2022-12-05T02:21:40;9.15;;;4.93;;
59766;SDS011;46248;58.364;25.582;2022-12-05T02:25:40;9.35;;;4.80;;
59766;SDS011;46248;58.364;25.582;2022-12-05T02:29:28;10.00;;;4.90;;
59766;SDS011;46248;58.364;25.582;2022-12-05T02:33:14;9.15;;;5.35;;
59766;SDS011;46248;58.364;25.582;2022-12-05T02:36:42;15.35;;;6.70;;
59766;SDS011;46248;58.364;25.582;2022-12-05T02:40:11;13.57;;;5.27;;
59766;SDS011;46248;58.364;25.582;2022-12-05T02:43:36;11.48;;;5.57;;
59766;SDS011;46248;58.364;25.582;2022-12-05T02:47:02;11.18;;;5.85;;
59766;SDS011;46248;58.364;25.582;2022-12-05T02:50:28;12.88;;;5.82;;
59766;SDS011;46248;58.364;25.582;2022-12-05T02:53:54;9.55;;;5.93;;
59766;SDS011;46248;58.364;25.582;2022-12-05T02:57:20;10.20;;;5.80;;
59766;SDS011;46248;58.364;25.582;2022-12-05T03:00:45;15.65;;;5.35;;
59766;SDS011;46248;58.364;25.582;2022-12-05T03:04:09;12.32;;;5.95;;
59766;SDS011;46248;58.364;25.582;2022-12-05T03:07:35;9.57;;;5.80;;
59766;SDS011;46248;58.364;25.582;2022-12-05T03:10:59;13.70;;;6.00;;
59766;SDS011;46248;58.364;25.582;2022-12-05T03:14:24;12.57;;;5.13;;
59766;SDS011;46248;58.364;25.582;2022-12-05T03:17:50;12.98;;;5.90;;
59766;SDS011;46248;58.364;25.582;2022-12-05T03:21:19;13.03;;;5.50;;
59766;SDS011;46248;58.364;25.582;2022-12-05T03:24:52;15.30;;;7.47;;
59766;SDS011;46248;58.364;25.582;2022-12-05T03:28:16;13.38;;;6.55;;
59766;SDS011;46248;58.364;25.582;2022-12-05T03:31:44;9.93;;;5.03;;
59766;SDS011;46248;58.364;25.582;2022-12-05T03:35:15;11.55;;;5.97;;
59766;SDS011;46248;58.364;25.582;2022-12-05T03:38:43;15.27;;;6.00;;
59766;SDS011;46248;58.364;25.582;2022-12-05T03:42:12;13.07;;;6.07;;
59766;SDS011;46248;58.364;25.582;2022-12-05T03:45:36;11.70;;;5.88;;
59766;SDS011;46248;58.364;25.582;2022-12-05T03:49:03;13.80;;;6.70;;
59766;SDS011;46248;58.364;25.582;2022-12-05T03:52:32;12.95;;;5.65;;
59766;SDS011;46248;58.364;25.582;2022-12-05T03:56:20;14.07;;;6.13;;
59766;SDS011;46248;58.364;25.582;2022-12-05T03:59:48;11.70;;;5.57;;
59766;SDS011;46248;58.364;25.582;2022-12-05T04:03:15;13.38;;;5.82;;
59766;SDS011;46248;58.364;25.582;2022-12-05T04:06:42;11.50;;;5.35;;
59766;SDS011;46248;58.364;25.582;2022-12-05T04:10:09;10.52;;;4.85;;
59766;SDS011;46248;58.364;25.582;2022-12-05T04:13:35;9.73;;;4.80;;
59766;SDS011;46248;58.364;25.582;2022-12-05T04:17:03;15.25;;;7.07;;
59766;SDS011;46248;58.364;25.582;2022-12-05T04:20:28;12.70;;;5.78;;
59766;SDS011;46248;58.364;25.582;2022-12-05T04:24:13;11.88;;;5.50;;
59766;SDS011;46248;58.364;25.582;2022-12-05T04:27:58;12.20;;;5.82;;
59766;SDS011;46248;58.364;25.582;2022-12-05T04:31:26;15.10;;;6.18;;
59766;SDS011;46248;58.364;25.582;2022-12-05T04:34:56;10.80;;;5.35;;
59766;SDS011;46248;58.364;25.582;2022-12-05T04:38:23;14.52;;;5.80;;
59766;SDS011;46248;58.364;25.582;2022-12-05T04:41:49;11.80;;;6.00;;
59766;SDS011;46248;58.364;25.582;2022-12-05T04:45:14;11.63;;;6.07;;
59766;SDS011;46248;58.364;25.582;2022-12-05T04:48:38;11.70;;;5.90;;
59766;SDS011;46248;58.364;25.582;2022-12-05T04:52:06;10.30;;;5.07;;
59766;SDS011;46248;58.364;25.582;2022-12-05T04:55:32;12.88;;;6.22;;
59766;SDS011;46248;58.364;25.582;2022-12-05T04:58:56;14.63;;;6.53;;
59766;SDS011;46248;58.364;25.582;2022-12-05T05:02:19;11.77;;;6.05;;
59766;SDS011;46248;58.364;25.582;2022-12-05T05:05:48;10.70;;;5.32;;
59766;SDS011;46248;58.364;25.582;2022-12-05T05:09:14;13.07;;;5.68;;
59766;SDS011;46248;58.364;25.582;2022-12-05T05:12:36;15.80;;;5.97;;
59766;SDS011;46248;58.364;25.582;2022-12-05T05:15:58;12.82;;;5.47;;
59766;SDS011;46248;58.364;25.582;2022-12-05T05:19:20;14.23;;;5.82;;
59766;SDS011;46248;58.364;25.582;2022-12-05T05:22:42;11.15;;;5.25;;
59766;SDS011;46248;58.364;25.582;2022-12-05T05:26:05;12.02;;;5.80;;
59766;SDS011;46248;58.364;25.582;2022-12-05T05:29:27;11.30;;;5.80;;
59766;SDS011;46248;58.364;25.582;2022-12-05T05:32:49;13.80;;;6.03;;
59766;SDS011;46248;58.364;25.582;2022-12-05T05:36:12;15.18;;;5.90;;
59766;SDS011;46248;58.364;25.582;2022-12-05T05:39:34;13.77;;;6.00;;
59766;SDS011;46248;58.364;25.582;2022-12-05T05:42:59;9.93;;;4.80;;
59766;SDS011;46248;58.364;25.582;2022-12-05T05:46:22;16.15;;;7.15;;
59766;SDS011;46248;58.364;25.582;2022-12-05T05:49:46;18.05;;;7.07;;
59766;SDS011;46248;58.364;25.582;2022-12-05T05:53:08;15.45;;;7.68;;
59766;SDS011;46248;58.364;25.582;2022-12-05T05:56:30;12.23;;;5.65;;
59766;SDS011;46248;58.364;25.582;2022-12-05T05:59:53;15.82;;;7.00;;
59766;SDS011;46248;58.364;25.582;2022-12-05T06:03:16;18.98;;;7.63;;
59766;SDS011;46248;58.364;25.582;2022-12-05T06:06:38;13.00;;;6.60;;
59766;SDS011;46248;58.364;25.582;2022-12-05T06:10:00;16.75;;;6.72;;
59766;SDS011;46248;58.364;25.582;2022-12-05T06:13:22;12.43;;;7.03;;
59766;SDS011;46248;58.364;25.582;2022-12-05T06:16:46;17.50;;;8.07;;
59766;SDS011;46248;58.364;25.582;2022-12-05T06:20:08;17.73;;;7.10;;
59766;SDS011;46248;58.364;25.582;2022-12-05T06:23:30;12.20;;;6.93;;
59766;SDS011;46248;58.364;25.582;2022-12-05T06:26:52;15.27;;;6.85;;
59766;SDS011;46248;58.364;25.582;2022-12-05T06:30:14;15.65;;;7.65;;
59766;SDS011;46248;58.364;25.582;2022-12-05T06:33:38;13.25;;;6.40;;
59766;SDS011;46248;58.364;25.582;2022-12-05T06:37:00;15.93;;;7.63;;
59766;SDS011;46248;58.364;25.582;2022-12-05T06:40:23;14.23;;;6.57;;
59766;SDS011;46248;58.364;25.582;2022-12-05T06:43:45;14.02;;;6.40;;
59766;SDS011;46248;58.364;25.582;2022-12-05T06:47:07;18.88;;;7.95;;
59766;SDS011;46248;58.364;25.582;2022-12-05T06:50:30;15.68;;;6.78;;
59766;SDS011;46248;58.364;25.582;2022-12-05T06:53:52;12.50;;;6.53;;
59766;SDS011;46248;58.364;25.582;2022-12-05T06:57:15;17.00;;;7.35;;
59766;SDS011;46248;58.364;25.582;2022-12-05T07:00:37;13.23;;;7.13;;
59766;SDS011;46248;58.364;25.582;2022-12-05T07:04:17;15.02;;;6.90;;
59766;SDS011;46248;58.364;25.582;2022-12-05T07:07:44;21.50;;;9.20;;
59766;SDS011;46248;58.364;25.582;2022-12-05T07:11:07;18.80;;;7.72;;
59766;SDS011;46248;58.364;25.582;2022-12-05T07:14:29;15.02;;;6.72;;
59766;SDS011;46248;58.364;25.582;2022-12-05T07:18:07;21.58;;;9.20;;
59766;SDS011;46248;58.364;25.582;2022-12-05T07:21:29;18.70;;;7.68;;
59766;SDS011;46248;58.364;25.582;2022-12-05T07:24:52;18.20;;;7.68;;
59766;SDS011;46248;58.364;25.582;2022-12-05T07:28:14;18.13;;;7.85;;
59766;SDS011;46248;58.364;25.582;2022-12-05T07:31:36;19.10;;;7.85;;
59766;SDS011;46248;58.364;25.582;2022-12-05T07:34:58;19.42;;;8.15;;
59766;SDS011;46248;58.364;25.582;2022-12-05T07:38:20;18.17;;;7.38;;
59766;SDS011;46248;58.364;25.582;2022-12-05T07:41:43;16.50;;;7.35;;
59766;SDS011;46248;58.364;25.582;2022-12-05T07:45:06;19.75;;;8.63;;
59766;SDS011;46248;58.364;25.582;2022-12-05T07:48:29;19.52;;;8.02;;
59766;SDS011;46248;58.364;25.582;2022-12-05T07:51:51;19.70;;;8.35;;
59766;SDS011;46248;58.364;25.582;2022-12-05T07:55:12;20.35;;;8.13;;
59766;SDS011;46248;58.364;25.582;2022-12-05T07:58:36;16.50;;;8.10;;
59766;SDS011;46248;58.364;25.582;2022-12-05T08:01:58;17.35;;;8.10;;
59766;SDS011;46248;58.364;25.582;2022-12-05T08:05:20;21.20;;;9.30;;
59766;SDS011;46248;58.364;25.582;2022-12-05T08:08:42;21.63;;;9.63;;
59766;SDS011;46248;58.364;25.582;2022-12-05T08:12:05;16.42;;;7.00;;
59766;SDS011;46248;58.364;25.582;2022-12-05T08:15:29;18.85;;;9.27;;
59766;SDS011;46248;58.364;25.582;2022-12-05T08:18:52;16.70;;;7.95;;
59766;SDS011;46248;58.364;25.582;2022-12-05T08:22:14;18.63;;;7.90;;
59766;SDS011;46248;58.364;25.582;2022-12-05T08:25:36;19.15;;;8.32;;
59766;SDS011;46248;58.364;25.582;2022-12-05T08:29:00;19.05;;;6.97;;
59766;SDS011;46248;58.364;25.582;2022-12-05T08:32:24;16.65;;;7.38;;
59766;SDS011;46248;58.364;25.582;2022-12-05T08:35:46;20.55;;;9.05;;
59766;SDS011;46248;58.364;25.582;2022-12-05T08:39:09;29.23;;;11.80;;
59766;SDS011;46248;58.364;25.582;2022-12-05T08:42:33;24.30;;;9.75;;
59766;SDS011;46248;58.364;25.582;2022-12-05T08:45:55;16.88;;;8.65;;
59766;SDS011;46248;58.364;25.582;2022-12-05T08:49:19;20.13;;;9.38;;
59766;SDS011;46248;58.364;25.582;2022-12-05T08:52:41;23.80;;;10.75;;
59766;SDS011;46248;58.364;25.582;2022-12-05T08:56:04;21.65;;;8.27;;
59766;SDS011;46248;58.364;25.582;2022-12-05T08:59:28;19.42;;;9.88;;
59766;SDS011;46248;58.364;25.582;2022-12-05T09:02:50;23.10;;;9.93;;
59766;SDS011;46248;58.364;25.582;2022-12-05T09:06:14;23.42;;;9.73;;
59766;SDS011;46248;58.364;25.582;2022-12-05T09:09:36;21.50;;;10.48;;
59766;SDS011;46248;58.364;25.582;2022-12-05T09:12:58;19.75;;;8.55;;
59766;SDS011;46248;58.364;25.582;2022-12-05T09:16:21;25.73;;;11.05;;
59766;SDS011;46248;58.364;25.582;2022-12-05T09:19:45;25.35;;;10.05;;
59766;SDS011;46248;58.364;25.582;2022-12-05T09:23:12;22.80;;;9.02;;
59766;SDS011;46248;58.364;25.582;2022-12-05T09:26:35;20.65;;;10.02;;
59766;SDS011;46248;58.364;25.582;2022-12-05T09:29:57;26.13;;;10.77;;
59766;SDS011;46248;58.364;25.582;2022-12-05T09:33:19;19.17;;;9.18;;
59766;SDS011;46248;58.364;25.582;2022-12-05T09:36:41;24.80;;;9.85;;
59766;SDS011;46248;58.364;25.582;2022-12-05T09:40:06;25.10;;;10.48;;
59766;SDS011;46248;58.364;25.582;2022-12-05T09:43:36;23.52;;;10.63;;
59766;SDS011;46248;58.364;25.582;2022-12-05T09:47:08;25.58;;;10.15;;
59766;SDS011;46248;58.364;25.582;2022-12-05T09:50:40;18.25;;;7.65;;
59766;SDS011;46248;58.364;25.582;2022-12-05T09:54:05;20.10;;;9.57;;
59766;SDS011;46248;58.364;25.582;2022-12-05T09:57:31;20.55;;;8.43;;
59766;SDS011;46248;58.364;25.582;2022-12-05T10:00:58;23.17;;;9.07;;
59766;SDS011;46248;58.364;25.582;2022-12-05T10:04:42;15.80;;;7.80;;
59766;SDS011;46248;58.364;25.582;2022-12-05T10:08:20;25.00;;;10.10;;
59766;SDS011;46248;58.364;25.582;2022-12-05T10:11:48;22.00;;;9.40;;
59766;SDS011;46248;58.364;25.582;2022-12-05T10:15:19;16.00;;;8.27;;
59766;SDS011;46248;58.364;25.582;2022-12-05T10:18:53;17.58;;;8.13;;
59766;SDS011;46248;58.364;25.582;2022-12-05T10:22:21;22.15;;;9.00;;
59766;SDS011;46248;58.364;25.582;2022-12-05T10:29:17;18.65;;;7.55;;
59766;SDS011;46248;58.364;25.582;2022-12-05T10:32:50;20.75;;;9.25;;
59766;SDS011;46248;58.364;25.582;2022-12-05T10:36:14;15.95;;;7.93;;
59766;SDS011;46248;58.364;25.582;2022-12-05T10:39:36;16.75;;;7.35;;
59766;SDS011;46248;58.364;25.582;2022-12-05T10:42:58;18.67;;;8.98;;
59766;SDS011;46248;58.364;25.582;2022-12-05T10:46:20;23.35;;;9.88;;
59766;SDS011;46248;58.364;25.582;2022-12-05T10:49:44;21.65;;;8.60;;
59766;SDS011;46248;58.364;25.582;2022-12-05T10:53:06;26.05;;;9.73;;
59766;SDS011;46248;58.364;25.582;2022-12-05T10:56:38;21.40;;;9.02;;
59766;SDS011;46248;58.364;25.582;2022-12-05T11:00:08;23.02;;;8.48;;
59766;SDS011;46248;58.364;25.582;2022-12-05T11:03:33;21.88;;;8.95;;
59766;SDS011;46248;58.364;25.582;2022-12-05T11:06:59;23.38;;;9.95;;
59766;SDS011;46248;58.364;25.582;2022-12-05T11:10:24;21.27;;;9.60;;
59766;SDS011;46248;58.364;25.582;2022-12-05T11:13:52;25.27;;;9.88;;
59766;SDS011;46248;58.364;25.582;2022-12-05T11:17:22;20.63;;;8.00;;
59766;SDS011;46248;58.364;25.582;2022-12-05T11:20:46;26.20;;;9.13;;
59766;SDS011;46248;58.364;25.582;2022-12-05T11:24:19;26.45;;;10.20;;
59766;SDS011;46248;58.364;25.582;2022-12-05T11:27:43;24.20;;;9.32;;
59766;SDS011;46248;58.364;25.582;2022-12-05T11:31:24;20.98;;;7.70;;
59766;SDS011;46248;58.364;25.582;2022-12-05T11:34:49;23.30;;;8.52;;
59766;SDS011;46248;58.364;25.582;2022-12-05T11:38:18;19.90;;;8.05;;
59766;SDS011;46248;58.364;25.582;2022-12-05T11:45:36;27.45;;;9.75;;
59766;SDS011;46248;58.364;25.582;2022-12-05T11:49:10;22.38;;;8.00;;
59766;SDS011;46248;58.364;25.582;2022-12-05T11:52:49;24.33;;;9.65;;
59766;SDS011;46248;58.364;25.582;2022-12-05T11:56:21;18.55;;;8.18;;
59766;SDS011;46248;58.364;25.582;2022-12-05T12:00:04;25.92;;;10.18;;
59766;SDS011;46248;58.364;25.582;2022-12-05T12:03:41;24.40;;;9.50;;
59766;SDS011;46248;58.364;25.582;2022-12-05T12:07:29;24.10;;;8.80;;
59766;SDS011;46248;58.364;25.582;2022-12-05T12:11:01;18.23;;;7.57;;
59766;SDS011;46248;58.364;25.582;2022-12-05T12:14:34;16.50;;;6.80;;
59766;SDS011;46248;58.364;25.582;2022-12-05T12:18:09;22.50;;;9.30;;
59766;SDS011;46248;58.364;25.582;2022-12-05T12:21:40;19.20;;;7.75;;
59766;SDS011;46248;58.364;25.582;2022-12-05T12:25:18;20.33;;;7.97;;
59766;SDS011;46248;58.364;25.582;2022-12-05T12:28:51;16.50;;;7.32;;
59766;SDS011;46248;58.364;25.582;2022-12-05T12:32:23;16.98;;;8.20;;
59766;SDS011;46248;58.364;25.582;2022-12-05T12:35:55;17.25;;;7.65;;
59766;SDS011;46248;58.364;25.582;2022-12-05T12:39:27;17.75;;;7.35;;
59766;SDS011;46248;58.364;25.582;2022-12-05T12:43:02;15.48;;;6.57;;
59766;SDS011;46248;58.364;25.582;2022-12-05T12:46:51;18.70;;;8.85;;
59766;SDS011;46248;58.364;25.582;2022-12-05T12:50:17;20.02;;;8.38;;
59766;SDS011;46248;58.364;25.582;2022-12-05T12:57:58;17.90;;;7.15;;
59766;SDS011;46248;58.364;25.582;2022-12-05T13:01:31;17.55;;;8.10;;
59766;SDS011;46248;58.364;25.582;2022-12-05T13:04:58;20.02;;;9.00;;
59766;SDS011;46248;58.364;25.582;2022-12-05T13:08:25;20.27;;;7.78;;
59766;SDS011;46248;58.364;25.582;2022-12-05T13:11:55;27.65;;;9.90;;
59766;SDS011;46248;58.364;25.582;2022-12-05T13:15:23;19.25;;;8.25;;
59766;SDS011;46248;58.364;25.582;2022-12-05T13:18:54;12.00;;;6.38;;
59766;SDS011;46248;58.364;25.582;2022-12-05T13:22:19;20.67;;;8.00;;
59766;SDS011;46248;58.364;25.582;2022-12-05T13:25:43;20.60;;;8.63;;
59766;SDS011;46248;58.364;25.582;2022-12-05T13:29:13;20.52;;;7.25;;
59766;SDS011;46248;58.364;25.582;2022-12-05T13:32:40;15.77;;;7.20;;
59766;SDS011;46248;58.364;25.582;2022-12-05T13:36:07;23.63;;;11.48;;
59766;SDS011;46248;58.364;25.582;2022-12-05T13:39:49;25.95;;;12.23;;
59766;SDS011;46248;58.364;25.582;2022-12-05T13:43:30;30.98;;;12.15;;
59766;SDS011;46248;58.364;25.582;2022-12-05T13:46:54;17.60;;;8.50;;
59766;SDS011;46248;58.364;25.582;2022-12-05T13:50:17;19.83;;;9.52;;
59766;SDS011;46248;58.364;25.582;2022-12-05T13:53:46;15.73;;;7.47;;
59766;SDS011;46248;58.364;25.582;2022-12-05T14:09:10;16.05;;;6.82;;
59766;SDS011;46248;58.364;25.582;2022-12-05T14:12:50;12.18;;;6.10;;
59766;SDS011;46248;58.364;25.582;2022-12-05T14:20:10;13.48;;;5.95;;
59766;SDS011;46248;58.364;25.582;2022-12-05T14:23:54;14.47;;;7.23;;
59766;SDS011;46248;58.364;25.582;2022-12-05T14:27:28;10.05;;;4.97;;
59766;SDS011;46248;58.364;25.582;2022-12-05T14:31:07;18.35;;;7.97;;
59766;SDS011;46248;58.364;25.582;2022-12-05T14:34:46;14.00;;;6.23;;
59766;SDS011;46248;58.364;25.582;2022-12-05T14:38:19;19.30;;;10.30;;
59766;SDS011;46248;58.364;25.582;2022-12-05T14:41:45;13.53;;;7.47;;
59766;SDS011;46248;58.364;25.582;2022-12-05T14:48:50;15.85;;;6.32;;
59766;SDS011;46248;58.364;25.582;2022-12-05T14:52:18;11.07;;;5.88;;
59766;SDS011;46248;58.364;25.582;2022-12-05T14:55:41;13.20;;;6.72;;
59766;SDS011;46248;58.364;25.582;2022-12-05T14:59:11;9.20;;;5.05;;
59766;SDS011;46248;58.364;25.582;2022-12-05T15:02:43;8.77;;;4.28;;
59766;SDS011;46248;58.364;25.582;2022-12-05T15:06:10;10.55;;;5.18;;
59766;SDS011;46248;58.364;25.582;2022-12-05T15:13:09;9.23;;;5.35;;
59766;SDS011;46248;58.364;25.582;2022-12-05T15:16:36;9.18;;;5.47;;
59766;SDS011;46248;58.364;25.582;2022-12-05T15:20:05;9.73;;;5.80;;
59766;SDS011;46248;58.364;25.582;2022-12-05T15:23:41;11.00;;;5.55;;
59766;SDS011;46248;58.364;25.582;2022-12-05T15:27:06;11.23;;;5.82;;
59766;SDS011;46248;58.364;25.582;2022-12-05T15:30:33;13.48;;;7.00;;
59766;SDS011;46248;58.364;25.582;2022-12-05T15:34:01;11.10;;;5.65;;
59766;SDS011;46248;58.364;25.582;2022-12-05T15:37:27;10.18;;;4.82;;
59766;SDS011;46248;58.364;25.582;2022-12-05T15:40:54;11.20;;;6.00;;
59766;SDS011;46248;58.364;25.582;2022-12-05T15:44:16;14.90;;;7.57;;
59766;SDS011;46248;58.364;25.582;2022-12-05T15:47:46;13.93;;;6.80;;
59766;SDS011;46248;58.364;25.582;2022-12-05T15:51:10;13.90;;;7.60;;
59766;SDS011;46248;58.364;25.582;2022-12-05T15:54:33;12.40;;;7.15;;
59766;SDS011;46248;58.364;25.582;2022-12-05T15:58:00;9.68;;;5.53;;
59766;SDS011;46248;58.364;25.582;2022-12-05T16:01:33;11.75;;;5.80;;
59766;SDS011;46248;58.364;25.582;2022-12-05T16:05:01;17.40;;;9.25;;
59766;SDS011;46248;58.364;25.582;2022-12-05T16:08:27;13.93;;;6.90;;
59766;SDS011;46248;58.364;25.582;2022-12-05T16:12:00;13.32;;;7.22;;
59766;SDS011;46248;58.364;25.582;2022-12-05T16:15:24;19.05;;;8.30;;
59766;SDS011;46248;58.364;25.582;2022-12-05T16:18:48;17.60;;;8.30;;
59766;SDS011;46248;58.364;25.582;2022-12-05T16:22:18;15.00;;;7.10;;
59766;SDS011;46248;58.364;25.582;2022-12-05T16:25:44;16.30;;;7.75;;
59766;SDS011;46248;58.364;25.582;2022-12-05T16:29:07;13.65;;;6.85;;
59766;SDS011;46248;58.364;25.582;2022-12-05T16:32:47;13.80;;;7.25;;
59766;SDS011;46248;58.364;25.582;2022-12-05T16:36:18;13.65;;;6.80;;
59766;SDS011;46248;58.364;25.582;2022-12-05T16:39:42;14.13;;;6.43;;
59766;SDS011;46248;58.364;25.582;2022-12-05T16:43:16;18.50;;;8.00;;
59766;SDS011;46248;58.364;25.582;2022-12-05T16:46:41;17.73;;;7.85;;
59766;SDS011;46248;58.364;25.582;2022-12-05T16:50:19;13.23;;;6.88;;
59766;SDS011;46248;58.364;25.582;2022-12-05T16:53:44;15.93;;;7.13;;
59766;SDS011;46248;58.364;25.582;2022-12-05T16:57:09;16.35;;;6.82;;
59766;SDS011;46248;58.364;25.582;2022-12-05T17:00:35;14.45;;;6.60;;
59766;SDS011;46248;58.364;25.582;2022-12-05T17:03:57;13.38;;;6.65;;
59766;SDS011;46248;58.364;25.582;2022-12-05T17:07:20;19.63;;;7.75;;
59766;SDS011;46248;58.364;25.582;2022-12-05T17:10:42;11.52;;;6.13;;
59766;SDS011;46248;58.364;25.582;2022-12-05T17:14:05;19.67;;;8.63;;
59766;SDS011;46248;58.364;25.582;2022-12-05T17:17:33;16.35;;;7.32;;
59766;SDS011;46248;58.364;25.582;2022-12-05T17:20:55;18.60;;;9.88;;
59766;SDS011;46248;58.364;25.582;2022-12-05T17:24:20;14.52;;;7.32;;
59766;SDS011;46248;58.364;25.582;2022-12-05T17:27:44;17.00;;;7.78;;
59766;SDS011;46248;58.364;25.582;2022-12-05T17:31:08;11.52;;;6.38;;
59766;SDS011;46248;58.364;25.582;2022-12-05T17:34:35;12.07;;;6.43;;
59766;SDS011;46248;58.364;25.582;2022-12-05T17:37:57;14.50;;;7.68;;
59766;SDS011;46248;58.364;25.582;2022-12-05T17:41:20;10.20;;;6.13;;
59766;SDS011;46248;58.364;25.582;2022-12-05T17:44:44;13.07;;;7.07;;
59766;SDS011;46248;58.364;25.582;2022-12-05T17:48:07;9.77;;;5.45;;
59766;SDS011;46248;58.364;25.582;2022-12-05T17:51:34;11.93;;;5.68;;
59766;SDS011;46248;58.364;25.582;2022-12-05T17:55:17;12.55;;;6.78;;
59766;SDS011;46248;58.364;25.582;2022-12-05T17:58:41;10.55;;;5.90;;
59766;SDS011;46248;58.364;25.582;2022-12-05T18:02:04;13.30;;;7.00;;
59766;SDS011;46248;58.364;25.582;2022-12-05T18:05:26;18.42;;;9.30;;
59766;SDS011;46248;58.364;25.582;2022-12-05T18:08:49;11.23;;;5.80;;
59766;SDS011;46248;58.364;25.582;2022-12-05T18:12:12;12.18;;;5.65;;
59766;SDS011;46248;58.364;25.582;2022-12-05T18:15:34;21.13;;;13.80;;
59766;SDS011;46248;58.364;25.582;2022-12-05T18:19:16;12.30;;;6.55;;
59766;SDS011;46248;58.364;25.582;2022-12-05T18:22:38;11.48;;;6.20;;
59766;SDS011;46248;58.364;25.582;2022-12-05T18:26:03;11.82;;;6.60;;
59766;SDS011;46248;58.364;25.582;2022-12-05T18:29:26;7.80;;;5.05;;
59766;SDS011;46248;58.364;25.582;2022-12-05T18:32:48;10.38;;;6.00;;
59766;SDS011;46248;58.364;25.582;2022-12-05T18:36:11;11.25;;;6.72;;
59766;SDS011;46248;58.364;25.582;2022-12-05T18:39:35;11.77;;;6.90;;
59766;SDS011;46248;58.364;25.582;2022-12-05T18:42:58;11.73;;;6.03;;
59766;SDS011;46248;58.364;25.582;2022-12-05T18:46:20;12.60;;;7.03;;
59766;SDS011;46248;58.364;25.582;2022-12-05T18:49:43;13.30;;;6.90;;
59766;SDS011;46248;58.364;25.582;2022-12-05T18:53:05;13.25;;;6.03;;
59766;SDS011;46248;58.364;25.582;2022-12-05T18:56:28;12.00;;;6.80;;
59766;SDS011;46248;58.364;25.582;2022-12-05T18:59:55;14.27;;;7.25;;
59766;SDS011;46248;58.364;25.582;2022-12-05T19:03:17;12.40;;;7.05;;
59766;SDS011;46248;58.364;25.582;2022-12-05T19:06:40;12.07;;;6.95;;
59766;SDS011;46248;58.364;25.582;2022-12-05T19:10:07;12.35;;;6.22;;
59766;SDS011;46248;58.364;25.582;2022-12-05T19:13:30;12.98;;;5.97;;
59766;SDS011;46248;58.364;25.582;2022-12-05T19:16:54;8.95;;;5.93;;
59766;SDS011;46248;58.364;25.582;2022-12-05T19:20:19;13.18;;;8.23;;
59766;SDS011;46248;58.364;25.582;2022-12-05T19:23:41;12.60;;;7.78;;
59766;SDS011;46248;58.364;25.582;2022-12-05T19:27:03;10.18;;;6.93;;
59766;SDS011;46248;58.364;25.582;2022-12-05T19:30:25;10.52;;;6.38;;
59766;SDS011;46248;58.364;25.582;2022-12-05T19:33:49;25.40;;;13.35;;
59766;SDS011;46248;58.364;25.582;2022-12-05T19:37:13;9.85;;;6.68;;
59766;SDS011;46248;58.364;25.582;2022-12-05T19:40:35;7.82;;;4.82;;
59766;SDS011;46248;58.364;25.582;2022-12-05T19:43:57;8.00;;;4.50;;
59766;SDS011;46248;58.364;25.582;2022-12-05T19:47:19;9.90;;;4.78;;
59766;SDS011;46248;58.364;25.582;2022-12-05T19:50:43;8.93;;;6.28;;
59766;SDS011;46248;58.364;25.582;2022-12-05T19:54:05;11.05;;;8.25;;
59766;SDS011;46248;58.364;25.582;2022-12-05T19:57:27;9.35;;;4.43;;
59766;SDS011;46248;58.364;25.582;2022-12-05T20:00:50;12.88;;;7.45;;
59766;SDS011;46248;58.364;25.582;2022-12-05T20:04:13;11.65;;;7.10;;
59766;SDS011;46248;58.364;25.582;2022-12-05T20:07:37;14.93;;;8.95;;
59766;SDS011;46248;58.364;25.582;2022-12-05T20:11:01;9.60;;;7.10;;
59766;SDS011;46248;58.364;25.582;2022-12-05T20:14:25;11.43;;;5.70;;
59766;SDS011;46248;58.364;25.582;2022-12-05T20:17:47;10.93;;;6.72;;
59766;SDS011;46248;58.364;25.582;2022-12-05T20:21:13;8.18;;;4.30;;
59766;SDS011;46248;58.364;25.582;2022-12-05T20:24:37;10.73;;;5.05;;
59766;SDS011;46248;58.364;25.582;2022-12-05T20:27:59;9.93;;;5.95;;
59766;SDS011;46248;58.364;25.582;2022-12-05T20:31:22;7.80;;;4.93;;
59766;SDS011;46248;58.364;25.582;2022-12-05T20:34:45;16.77;;;10.70;;
59766;SDS011;46248;58.364;25.582;2022-12-05T20:38:07;12.18;;;7.45;;
59766;SDS011;46248;58.364;25.582;2022-12-05T20:41:30;10.35;;;5.63;;
59766;SDS011;46248;58.364;25.582;2022-12-05T20:44:56;11.63;;;6.75;;